Laneburg, Arkansas
Current Conditions -  °F | °C
As of 9:56 AM on Thursday 18 Dec 2014 (Local Time) from KADF Reporting Station
Haze Haze  
Wind Chill: 35°   Ceiling: 400
Heat Index: 40°   Visibility: 5mi
Dew Point: 40°   Wind: 7mph
Humidity: 100%   Direction: 40°NE
Pressure: 30.25"   Gusts: NA
Location:  33.69°N, 93.35°W
Report Text: KADF 181556Z AUTO 04006KT 5SM BR OVC004 04/04 A3025 RMK AO2 T00440044 SLP259
Loading
Personal Weather Stations






























Interactive Weather Map New forecast layout! Learn more

10-Day Weather Forecast

Advertisements
Track Severe Weather on mobile